KMLS/MLS METAR and TAF weather

Enter ICAO airport designator
Station Type Date Time Source
KMLS METAR 2019/02/20 06:53 UTC NOAA

KMLS 200653Z AUTO 34005KT 10SM CLR M27/M28 A2975 RMK AO2 SLP147 I1000 T12671283 411561283


Station Type Date Time Source
KMLS Decoded METAR 2019/02/20 06:53 UTC NOAA

MILES CITY WILEY FIELD, MT, United States (KMLS) 46-26N 105-53W 801M
Feb 20, 2019 - 01:53 AM EST / 2019.02.20 0653 UTC
Wind: from the NNW (340 degrees) at 6 MPH (5 KT):0
Visibility: 10 mile(s):0
Sky conditions: clear
Temperature: -16.1 F (-26.7 C)
Windchill: -31 F (-35 C):2
Dew Point: -18.9 F (-28.3 C)
Relative Humidity: 86%
Pressure (altimeter): 29.75 in. Hg (1007 hPa)
ob: KMLS 200653Z AUTO 34005KT 10SM CLR M27/M28 A2975 RMK AO2 SLP147 I1000 T12671283 411561283
cycle: 7

Station Type Date Time Source
KMLS TAF 2019/02/20 06:40 UTC NOAA

TAF KMLS 200537Z 2006/2106 02005KT P6SM VCFG SKC
FM200800 16005KT P6SM VCFG SKC
FM201600 25006KT P6SM SCT080
FM202100 31006KT P6SM BKN080


Example: see airport list